Anna Maria, Florida
Current Conditions -  °F | °C
As of 4:53 PM on Thursday 27 Nov 2014 (Local Time) from KSRQ Reporting Station
Clear Clear  
Wind Chill: 62°   Ceiling: Unl
Heat Index: 62°   Visibility: 10mi
Dew Point: 43°   Wind: 14mph
Humidity: 50%   Direction: 340°NNW
Pressure: 30.2"   Gusts: NA
Location:  27.53°N, 82.73°W
Report Text: KSRQ 272153Z 34012KT 10SM CLR 17/06 A3020 RMK AO2 SLP227 T01670061
Loading
Personal Weather Stations






























Interactive Weather Map New forecast layout! Learn more

10-Day Weather Forecast

Advertisements
Track Severe Weather on mobile